Boynton Beach, FL (33435)

9:31 PM EDT on September 03, 2015 (GMT -0400)
Forest Park | | Change Station
CLOSE
Current Station
Personal Weather Station
Location: Boynton Beach, FL
Elevation: 15 ft
Nearby Weather Stations

Elev 15 ft 26.52 °N, 80.07 °W | Updated 15 days ago

Thunderstorm
Thunderstorm
83 °F
Feels Like 88 °F
N
5
Wind Variable Wind from WSW
Gusts mph

Today
High -- | Low -- °F
--% Chance of Precip.
Yesterday
High -- | Low -- °F
Precip. -- in
7:00 AM 7:38 PM
Waning Gibbous, 65% visible
Pressure 29.94 in
Visibility 10.0 miles
Clouds Few 3000 ft
Scattered Clouds 22000 ft
Heat Index 88 °F
Dew Point 74 °F
Humidity 75%
Rainfall in
Snow Depth Not available.
UV 0 out of 12
Pollen 4.70 out of 12
Air Quality Not available.
Flu Activity Not available.
METAR KPBI 040053Z COR 25007KT 10SM FEW030 SCT220 27/23 A2994 RMK AO2 SLP139 T02670233
Pressure 29.94 in
Visibility 10.0 miles
Clouds Few 3000 ft
Scattered Clouds 22000 ft
Heat Index 88 °F
Dew Point 74 °F
Humidity 75%
Rainfall in
Snow Depth Not available.
UV 0 out of 12
Pollen 4.70 out of 12
Air Quality Not available.
Flu Activity Not available.
METAR KPBI 040053Z COR 25007KT 10SM FEW030 SCT220 27/23 A2994 RMK AO2 SLP139 T02670233

10-Day Weather Forecast

×

Almanac

Astronomy

Sep. 03, 2015 Rise Set
Actual Time
Civil Twilight
Nautical Twilight
Astronomical Twilight
Moon
Length of Visible Light
Length of Day
Tomorrow will be .
, % of the Moon is Illuminated

Today's Extremes

State Highs State Lows

Community

WunderPhotos

Upload Photos

1,852,086 photos uploaded!

WunderBlogs® & News

Nearby

Air Quality

  Air Quality AQ Index Pollutant
Not available.

Snow Depth

Station Depth Elevation

Earthquake Activity

City Distance Mag. Time & Date
Minimum magnitude displayed is 2.5.

Coastal Water Temperatures

Place Temperature

Stations

Nearby Weather Stations

Station Location Temp. Windchill Dew Point Humidity Wind Precip. Elev Updated Type